Terminal Aerodrome Forecast
Issued by NWS Wilmington, OH

Home | Current Version | Previous Version | Text Only | Print | Product List | Glossary On
Versions: 1 2 3 4 5 6 7 8 9 10 11 12 13
000
FTUS41 KILN 210547
TAFILN
TAF
KILN 210547Z 2106/2206 23004KT P6SM VCSH BKN050
     FM211100 26005KT 5SM -SHRA VCTS OVC025CB
     FM211400 29006KT P6SM VCSH BKN025
     FM212300 22004KT P6SM VCTS BKN035CB
     FM220400 17003KT P6SM VCSH BKN040=

USA.gov is the U.S. government's official web portal to all federal, state and local government web resources and services.